Time;durP1;ratioP1;P1;durP2;ratioP2;P2;SDS_P1;SDS_P2;PMS_P1;PMS_P2;Temp;Humidity;BMP_temperature;BMP_pressure;BME280_temperature;BME280_humidity;BME280_pressure;Samples;Min_cycle;Max_cycle;Signal;HPM_P1;HPM_P2
2021/09/10 00:01:42;;;;;;;12.23;9.43;;;19.30;99.90;;;;;;4174294;28;20610;-76
2021/09/10 00:03:44;;;;;;;13.37;9.50;;;19.20;99.90;;;;;;4181537;28;20218;-76
2021/09/10 00:05:45;;;;;;;12.70;9.40;;;19.20;99.90;;;;;;4181532;28;20256;-76
2021/09/10 00:07:47;;;;;;;14.20;9.80;;;19.20;99.90;;;;;;4174233;28;20226;-76
2021/09/10 00:09:49;;;;;;;12.60;10.13;;;19.20;99.90;;;;;;4179077;28;20209;-76
2021/09/10 00:11:53;;;;;;;12.67;9.87;;;19.10;99.90;;;;;;4164828;28;20249;-76
2021/09/10 00:13:55;;;;;;;14.37;9.63;;;19.10;99.90;;;;;;4176953;28;20288;-76
2021/09/10 00:15:57;;;;;;;12.90;9.70;;;19.20;99.90;;;;;;4173825;28;20226;-76
2021/09/10 00:18:00;;;;;;;16.77;9.73;;;19.10;99.90;;;;;;4176388;28;20201;-76
2021/09/10 00:20:01;;;;;;;14.03;9.97;;;19.10;99.90;;;;;;4165275;28;20260;-76
2021/09/10 00:22:04;;;;;;;14.87;9.93;;;19.10;99.90;;;;;;4165110;28;20292;-77
2021/09/10 00:24:06;;;;;;;13.47;9.83;;;19.10;99.90;;;;;;4176368;28;20207;-77
2021/09/10 00:26:08;;;;;;;17.27;9.87;;;19.10;99.90;;;;;;4168112;28;20283;-77
2021/09/10 00:28:13;;;;;;;14.43;9.63;;;19.00;99.90;;;;;;4167050;28;20275;-77
2021/09/10 00:30:14;;;;;;;13.07;9.77;;;19.00;99.90;;;;;;4181097;28;20215;-77
2021/09/10 00:32:16;;;;;;;15.17;10.00;;;19.00;99.90;;;;;;4181201;28;20229;-76
2021/09/10 00:34:19;;;;;;;12.27;9.43;;;19.00;99.90;;;;;;4180185;28;20216;-77
2021/09/10 00:36:21;;;;;;;14.83;9.90;;;19.00;99.90;;;;;;4167595;28;20267;-77
2021/09/10 00:38:23;;;;;;;13.83;10.17;;;18.90;99.90;;;;;;4174148;28;20205;-76
2021/09/10 00:40:25;;;;;;;16.30;11.33;;;18.90;99.90;;;;;;4175985;28;20212;-76
2021/09/10 00:42:26;;;;;;;14.87;10.80;;;18.90;99.90;;;;;;4176510;28;20612;-76
2021/09/10 00:44:28;;;;;;;14.40;9.90;;;18.90;99.90;;;;;;4177710;28;20210;-75
2021/09/10 00:46:30;;;;;;;16.87;10.90;;;18.90;99.90;;;;;;4180022;28;20209;-75
2021/09/10 00:48:33;;;;;;;16.10;11.07;;;18.80;99.90;;;;;;4180218;28;20232;-75
2021/09/10 00:50:36;;;;;;;18.63;10.30;;;18.80;99.90;;;;;;4180730;28;20447;-75
2021/09/10 00:52:38;;;;;;;16.10;10.50;;;18.80;99.90;;;;;;4178585;28;20239;-76
2021/09/10 00:54:40;;;;;;;14.87;10.90;;;18.80;99.90;;;;;;4180295;28;20619;-75
2021/09/10 00:56:41;;;;;;;15.73;10.70;;;18.80;99.90;;;;;;4180571;28;20212;-75
2021/09/10 00:58:43;;;;;;;14.83;10.67;;;18.80;99.90;;;;;;4172947;28;20222;-76
2021/09/10 01:00:45;;;;;;;15.03;10.73;;;18.70;99.90;;;;;;4179130;28;20212;-75
2021/09/10 01:02:47;;;;;;;16.03;11.20;;;18.70;99.90;;;;;;4176593;28;20211;-76
2021/09/10 01:04:50;;;;;;;16.70;12.37;;;18.70;99.90;;;;;;4179336;28;20740;-75
2021/09/10 01:06:54;;;;;;;18.10;12.70;;;18.70;99.90;;;;;;4178949;28;20696;-79
2021/09/10 01:08:56;;;;;;;17.63;12.83;;;18.70;99.90;;;;;;4171899;28;20203;-75
2021/09/10 01:11:00;;;;;;;16.73;12.60;;;18.70;99.90;;;;;;4163699;28;20212;-74
2021/09/10 01:13:03;;;;;;;18.20;12.00;;;18.70;99.90;;;;;;4215606;22;20236;-79
2021/09/10 01:15:07;;;;;;;16.53;12.37;;;18.60;99.90;;;;;;4209988;28;20560;-78
2021/09/10 01:17:09;;;;;;;19.60;12.13;;;18.60;99.90;;;;;;4212803;28;20196;-78
2021/09/10 01:19:21;;;;;;;18.53;12.60;;;18.60;99.90;;;;;;4213178;28;20219;-78
2021/09/10 01:21:23;;;;;;;16.20;11.70;;;18.60;99.90;;;;;;4213075;28;20211;-78
2021/09/10 01:23:26;;;;;;;17.47;12.40;;;18.60;99.90;;;;;;4210469;28;20217;-78
2021/09/10 01:25:29;;;;;;;17.83;12.77;;;18.50;99.90;;;;;;4200487;28;20210;-78
2021/09/10 01:27:31;;;;;;;19.03;13.20;;;18.50;99.90;;;;;;4200365;28;20242;-78
2021/09/10 01:29:34;;;;;;;17.53;12.27;;;18.50;99.90;;;;;;4207413;28;20265;-78
2021/09/10 01:31:36;;;;;;;21.43;12.73;;;18.50;99.90;;;;;;4198054;28;20231;-78
2021/09/10 01:33:38;;;;;;;17.70;13.23;;;18.40;99.90;;;;;;4205621;28;20257;-78
2021/09/10 01:35:40;;;;;;;16.27;12.17;;;18.50;99.90;;;;;;4213962;28;20668;-79
2021/09/10 01:37:41;;;;;;;18.73;12.37;;;18.40;99.90;;;;;;4209244;28;20255;-79
2021/09/10 01:39:43;;;;;;;17.97;12.80;;;18.40;99.90;;;;;;4213619;28;20629;-78
2021/09/10 01:41:46;;;;;;;19.80;12.50;;;18.40;99.90;;;;;;4213952;28;20235;-78
2021/09/10 01:43:48;;;;;;;16.90;12.10;;;18.40;99.90;;;;;;4210927;28;20262;-78
2021/09/10 01:45:50;;;;;;;18.43;12.10;;;18.40;99.90;;;;;;4213185;28;20552;-78
2021/09/10 01:47:52;;;;;;;16.93;12.37;;;18.40;99.90;;;;;;4210476;28;20288;-78
2021/09/10 01:49:53;;;;;;;16.07;12.23;;;18.40;99.90;;;;;;4208344;28;20257;-78
2021/09/10 01:51:55;;;;;;;17.00;12.10;;;18.40;99.90;;;;;;4197382;28;20778;-79
2021/09/10 01:53:57;;;;;;;17.83;12.30;;;18.40;99.90;;;;;;4200946;28;20215;-79
2021/09/10 01:55:59;;;;;;;18.10;13.23;;;18.40;99.90;;;;;;4205488;28;20215;-79
2021/09/10 01:58:02;;;;;;;21.17;12.70;;;18.30;99.90;;;;;;4211108;28;20245;-78
2021/09/10 02:00:05;;;;;;;18.80;12.67;;;18.30;99.90;;;;;;4214822;28;20235;-78
2021/09/10 02:02:07;;;;;;;19.10;12.37;;;18.30;99.90;;;;;;4209992;28;20260;-78
2021/09/10 02:04:09;;;;;;;19.90;12.50;;;18.30;99.90;;;;;;4217732;28;20207;-78
2021/09/10 02:06:10;;;;;;;20.93;12.43;;;18.20;99.90;;;;;;4212625;28;20215;-78
2021/09/10 02:08:12;;;;;;;17.70;12.17;;;18.20;99.90;;;;;;4225942;28;20230;-78
2021/09/10 02:10:15;;;;;;;24.93;13.53;;;18.20;99.90;;;;;;4214793;28;20260;-78
2021/09/10 02:12:17;;;;;;;19.63;13.00;;;18.20;99.90;;;;;;4209418;28;20318;-79
2021/09/10 02:14:20;;;;;;;18.67;12.50;;;18.20;99.90;;;;;;4208907;28;20683;-79
2021/09/10 02:16:22;;;;;;;23.27;13.33;;;18.10;99.90;;;;;;4212277;28;20206;-78
2021/09/10 02:18:23;;;;;;;20.77;13.33;;;18.20;99.90;;;;;;4205852;28;20210;-79
2021/09/10 02:20:25;;;;;;;20.20;12.90;;;18.10;99.90;;;;;;4208894;28;20260;-79
2021/09/10 02:22:27;;;;;;;18.90;13.47;;;18.10;99.90;;;;;;4212748;28;20691;-79
2021/09/10 02:24:28;;;;;;;24.37;14.27;;;18.10;99.90;;;;;;4204681;28;20210;-79
2021/09/10 02:26:30;;;;;;;21.73;13.47;;;18.10;99.90;;;;;;4206828;28;20271;-79
2021/09/10 02:28:32;;;;;;;22.00;13.07;;;18.00;99.90;;;;;;4201780;28;20231;-79
2021/09/10 02:30:35;;;;;;;19.70;13.23;;;18.00;99.90;;;;;;4195702;28;20214;-79
2021/09/10 02:32:37;;;;;;;17.97;13.23;;;18.00;99.90;;;;;;4205293;28;20238;-79
2021/09/10 02:34:38;;;;;;;17.57;12.77;;;18.00;99.90;;;;;;4206482;28;20275;-79
2021/09/10 02:36:40;;;;;;;18.37;13.20;;;17.90;99.90;;;;;;4211816;28;20214;-79
2021/09/10 02:38:42;;;;;;;20.57;14.10;;;18.00;99.90;;;;;;4206697;28;20548;-79
2021/09/10 02:40:44;;;;;;;20.50;13.70;;;18.00;99.90;;;;;;4212767;28;20582;-79
2021/09/10 02:42:46;;;;;;;21.57;13.40;;;17.90;99.90;;;;;;4211652;28;20293;-79
2021/09/10 02:44:47;;;;;;;20.20;13.20;;;17.90;99.90;;;;;;4214091;28;20212;-79
2021/09/10 02:46:53;;;;;;;22.83;13.90;;;17.90;99.90;;;;;;4213172;28;20638;-79
2021/09/10 02:48:54;;;;;;;19.03;13.07;;;17.90;99.90;;;;;;4199510;28;20235;-79
2021/09/10 02:50:56;;;;;;;18.30;13.20;;;17.90;99.90;;;;;;4208141;28;20292;-79
2021/09/10 02:52:58;;;;;;;19.33;13.23;;;17.90;99.90;;;;;;4210783;28;20221;-79
2021/09/10 02:55:00;;;;;;;18.57;13.63;;;17.80;99.90;;;;;;4212749;28;20632;-79
2021/09/10 02:57:02;;;;;;;21.73;13.40;;;17.80;99.90;;;;;;4212003;28;20205;-79
2021/09/10 02:59:03;;;;;;;18.40;12.90;;;17.80;99.90;;;;;;4210987;28;20206;-79
2021/09/10 03:01:05;;;;;;;21.13;13.80;;;17.80;99.90;;;;;;4212493;28;20636;-79
2021/09/10 03:03:08;;;;;;;20.47;14.43;;;17.80;99.90;;;;;;4202416;28;20375;-79
2021/09/10 03:05:11;;;;;;;22.63;14.07;;;17.80;99.90;;;;;;4202212;28;20252;-79
2021/09/10 03:07:12;;;;;;;21.20;14.07;;;17.80;99.90;;;;;;4195839;28;20228;-79
2021/09/10 03:09:17;;;;;;;20.87;14.03;;;17.80;99.90;;;;;;4203616;28;20237;-79
2021/09/10 03:11:19;;;;;;;20.33;13.10;;;17.80;99.90;;;;;;4211126;28;20635;-79
2021/09/10 03:13:20;;;;;;;19.80;13.87;;;17.70;99.90;;;;;;4213086;28;20206;-79
2021/09/10 03:15:22;;;;;;;19.07;13.07;;;17.70;99.90;;;;;;4210440;28;20205;-79
2021/09/10 03:17:24;;;;;;;23.67;13.83;;;17.70;99.90;;;;;;4211386;28;20213;-79
2021/09/10 03:19:28;;;;;;;20.83;13.63;;;17.70;99.90;;;;;;4212779;28;20205;-79
2021/09/10 03:21:29;;;;;;;19.80;13.30;;;17.70;99.90;;;;;;4213494;28;20204;-78
2021/09/10 03:23:31;;;;;;;21.93;14.20;;;17.70;99.90;;;;;;4217868;28;20213;-78
2021/09/10 03:25:33;;;;;;;23.20;13.73;;;17.70;99.90;;;;;;4205420;28;20600;-79
2021/09/10 03:27:35;;;;;;;21.07;13.47;;;17.70;99.90;;;;;;4207902;28;20733;-79
2021/09/10 03:29:37;;;;;;;23.03;14.83;;;17.70;99.90;;;;;;4212144;28;20295;-79
2021/09/10 03:31:39;;;;;;;21.23;14.67;;;17.60;99.90;;;;;;4212938;28;20268;-79
2021/09/10 03:33:41;;;;;;;19.53;13.47;;;17.60;99.90;;;;;;4209687;28;20295;-79
2021/09/10 03:35:44;;;;;;;21.20;13.97;;;17.60;99.90;;;;;;4211089;28;20213;-79
2021/09/10 03:37:47;;;;;;;25.73;14.27;;;17.60;99.90;;;;;;4198466;28;20217;-79
2021/09/10 03:39:49;;;;;;;23.83;15.10;;;17.60;99.90;;;;;;4197859;28;20571;-79
2021/09/10 03:41:51;;;;;;;23.57;14.87;;;17.60;99.90;;;;;;4200673;28;20280;-79
2021/09/10 03:43:53;;;;;;;22.57;14.73;;;17.60;99.90;;;;;;4203381;28;20209;-79
2021/09/10 03:45:55;;;;;;;22.70;14.77;;;17.60;99.90;;;;;;4221243;28;20258;-78
2021/09/10 03:47:57;;;;;;;21.23;14.27;;;17.50;99.90;;;;;;4220857;28;20206;-78
2021/09/10 03:49:58;;;;;;;23.37;14.73;;;17.50;99.90;;;;;;4220893;28;20270;-78
2021/09/10 03:52:02;;;;;;;21.17;15.20;;;17.60;99.90;;;;;;4218751;28;20698;-78
2021/09/10 03:54:04;;;;;;;22.33;14.07;;;17.50;99.90;;;;;;4214875;28;20666;-80
2021/09/10 03:56:06;;;;;;;19.53;14.53;;;17.50;99.90;;;;;;4213490;28;20210;-79
2021/09/10 03:58:08;;;;;;;20.50;14.67;;;17.50;99.90;;;;;;4214308;28;20197;-79
2021/09/10 04:00:11;;;;;;;20.60;14.73;;;17.40;99.90;;;;;;4208174;28;20651;-79
2021/09/10 04:02:12;;;;;;;20.50;14.67;;;17.50;99.90;;;;;;4215332;28;20282;-78
2021/09/10 04:04:14;;;;;;;23.47;15.03;;;17.50;99.90;;;;;;4208776;28;20209;-78
2021/09/10 04:06:16;;;;;;;19.67;14.40;;;17.50;99.90;;;;;;4208472;28;20658;-78
2021/09/10 04:08:19;;;;;;;21.37;14.33;;;17.40;99.90;;;;;;4207660;28;20282;-78
2021/09/10 04:10:20;;;;;;;20.70;14.53;;;17.40;99.90;;;;;;4210683;28;20632;-78
2021/09/10 04:12:22;;;;;;;21.83;15.07;;;17.40;99.90;;;;;;4214114;28;20241;-78
2021/09/10 04:14:24;;;;;;;20.03;13.50;;;17.40;99.90;;;;;;4208100;28;20205;-78
2021/09/10 04:16:26;;;;;;;20.87;14.37;;;17.40;99.90;;;;;;4215403;28;20216;-78
2021/09/10 04:18:27;;;;;;;21.33;14.83;;;17.40;99.90;;;;;;4214874;28;20206;-78
2021/09/10 04:20:30;;;;;;;20.27;14.97;;;17.40;99.90;;;;;;4213926;28;20205;-79
2021/09/10 04:22:31;;;;;;;19.13;14.47;;;17.40;99.90;;;;;;4213455;28;20706;-78
2021/09/10 04:24:34;;;;;;;22.57;14.90;;;17.40;99.90;;;;;;4212141;28;20205;-78
2021/09/10 04:26:36;;;;;;;20.60;14.87;;;17.40;99.90;;;;;;4205689;28;20733;-78
2021/09/10 04:28:38;;;;;;;22.00;15.40;;;17.40;99.90;;;;;;4206346;28;20734;-78
2021/09/10 04:30:40;;;;;;;20.27;14.13;;;17.40;99.90;;;;;;4207034;28;20769;-78
2021/09/10 04:32:42;;;;;;;20.97;14.53;;;17.40;99.90;;;;;;4211267;28;20237;-78
2021/09/10 04:34:45;;;;;;;24.40;15.90;;;17.40;99.90;;;;;;4210221;28;20214;-79
2021/09/10 04:36:47;;;;;;;22.37;15.23;;;17.40;99.90;;;;;;4209673;28;20674;-78
2021/09/10 04:38:49;;;;;;;25.07;15.97;;;17.30;99.90;;;;;;4207630;28;20212;-78
2021/09/10 04:40:52;;;;;;;23.50;15.63;;;17.30;99.90;;;;;;4205919;28;20243;-78
2021/09/10 04:42:53;;;;;;;23.27;16.17;;;17.30;99.90;;;;;;4209260;28;20610;-78
2021/09/10 04:44:55;;;;;;;22.73;15.73;;;17.30;99.90;;;;;;4205154;28;20206;-78
2021/09/10 04:46:57;;;;;;;23.03;16.03;;;17.40;99.90;;;;;;4204349;28;20211;-77
2021/09/10 04:48:58;;;;;;;24.70;14.83;;;17.30;99.90;;;;;;4205095;28;20225;-79
2021/09/10 04:51:00;;;;;;;21.63;15.07;;;17.30;99.90;;;;;;4214669;28;20210;-80
2021/09/10 04:53:02;;;;;;;24.03;15.80;;;17.30;99.90;;;;;;4216089;28;20225;-79
2021/09/10 04:55:04;;;;;;;22.00;15.20;;;17.30;99.90;;;;;;4218010;28;20262;-80
2021/09/10 04:57:07;;;;;;;22.00;14.83;;;17.30;99.90;;;;;;4217578;28;20205;-80
2021/09/10 04:59:09;;;;;;;21.03;15.50;;;17.30;99.90;;;;;;4215644;28;20202;-80
2021/09/10 05:01:11;;;;;;;20.77;15.17;;;17.30;99.90;;;;;;4215202;28;20209;-80
2021/09/10 05:03:12;;;;;;;23.10;15.23;;;17.30;99.90;;;;;;4211762;28;20263;-80
2021/09/10 05:05:14;;;;;;;22.27;15.17;;;17.30;99.90;;;;;;4221394;28;20205;-80
2021/09/10 05:07:16;;;;;;;21.37;15.33;;;17.30;99.90;;;;;;4218147;28;20209;-78
2021/09/10 05:09:17;;;;;;;22.70;15.73;;;17.30;99.90;;;;;;4208354;28;20233;-79
2021/09/10 05:11:19;;;;;;;23.03;16.10;;;17.30;99.90;;;;;;4212485;28;20580;-78
2021/09/10 05:13:22;;;;;;;22.17;15.77;;;17.30;99.90;;;;;;4208852;28;20211;-78
2021/09/10 05:15:24;;;;;;;23.77;15.87;;;17.30;99.90;;;;;;4219506;28;20213;-78
2021/09/10 05:17:26;;;;;;;23.57;16.40;;;17.40;99.90;;;;;;4216695;28;20677;-78
2021/09/10 05:19:27;;;;;;;23.77;17.03;;;17.40;99.90;;;;;;4213863;28;20206;-79
2021/09/10 05:21:29;;;;;;;24.87;16.53;;;17.40;99.90;;;;;;4211793;28;20239;-79
2021/09/10 05:23:31;;;;;;;26.00;16.97;;;17.40;99.90;;;;;;4210095;28;20209;-79
2021/09/10 05:25:33;;;;;;;21.87;15.67;;;17.50;99.90;;;;;;4208121;28;20262;-79
2021/09/10 05:27:35;;;;;;;23.57;16.23;;;17.60;99.90;;;;;;4209795;28;20265;-79
2021/09/10 05:29:38;;;;;;;20.00;14.67;;;17.60;99.90;;;;;;4217559;28;20299;-79
2021/09/10 05:31:39;;;;;;;20.37;15.33;;;17.60;99.90;;;;;;4215303;28;20287;-79
2021/09/10 05:33:41;;;;;;;21.80;15.07;;;17.70;99.90;;;;;;4217222;28;20244;-78
2021/09/10 05:35:43;;;;;;;22.17;15.13;;;17.70;99.90;;;;;;4204656;28;20209;-78
2021/09/10 05:37:45;;;;;;;21.03;15.77;;;17.80;99.90;;;;;;4201655;28;20350;-79
2021/09/10 05:39:46;;;;;;;21.70;15.07;;;17.80;99.90;;;;;;4209165;28;20647;-78
2021/09/10 05:41:48;;;;;;;20.20;15.20;;;17.80;99.90;;;;;;4212649;28;20225;-79
2021/09/10 05:43:50;;;;;;;19.97;14.90;;;17.90;99.90;;;;;;4199573;28;20264;-78
2021/09/10 05:45:53;;;;;;;24.80;16.07;;;17.90;99.90;;;;;;4201822;28;20216;-79
2021/09/10 05:47:54;;;;;;;24.67;16.13;;;17.90;99.90;;;;;;4202792;28;20280;-78
2021/09/10 05:49:56;;;;;;;22.97;15.60;;;18.00;99.90;;;;;;4202162;28;20226;-78
2021/09/10 05:51:58;;;;;;;21.83;16.03;;;18.00;99.90;;;;;;4200417;28;20277;-78
2021/09/10 05:54:00;;;;;;;23.27;14.50;;;18.00;99.90;;;;;;4196186;28;20208;-78
2021/09/10 05:56:01;;;;;;;21.17;15.30;;;18.00;99.90;;;;;;4199830;28;20205;-78
2021/09/10 05:58:03;;;;;;;20.77;14.70;;;18.10;99.90;;;;;;4199778;28;20224;-78
2021/09/10 06:00:06;;;;;;;21.00;14.87;;;18.10;99.90;;;;;;4191602;28;20261;-78
2021/09/10 06:02:09;;;;;;;22.17;14.73;;;18.10;99.90;;;;;;4195040;28;20333;-79
2021/09/10 06:04:11;;;;;;;20.07;14.50;;;18.10;99.90;;;;;;4202644;28;20349;-79
2021/09/10 06:06:12;;;;;;;23.03;15.73;;;18.20;99.90;;;;;;4198879;28;20264;-78
2021/09/10 06:08:14;;;;;;;20.63;14.80;;;18.20;99.90;;;;;;4196015;28;20223;-78
2021/09/10 06:10:18;;;;;;;20.87;14.30;;;18.20;99.90;;;;;;4202609;28;20443;-78
2021/09/10 06:12:20;;;;;;;21.13;14.80;;;18.20;99.90;;;;;;4200654;28;20240;-78
2021/09/10 06:14:22;;;;;;;23.97;15.13;;;18.30;99.90;;;;;;4203302;28;20237;-78
2021/09/10 06:16:23;;;;;;;20.03;14.77;;;18.30;99.90;;;;;;4203679;28;20216;-78
2021/09/10 06:18:26;;;;;;;22.13;15.00;;;18.30;99.90;;;;;;4198207;28;20232;-78
2021/09/10 06:20:28;;;;;;;20.80;14.63;;;18.30;99.90;;;;;;4200535;28;20237;-79
2021/09/10 06:22:31;;;;;;;19.97;14.30;;;18.40;99.90;;;;;;4203143;28;20280;-79
2021/09/10 06:24:33;;;;;;;22.83;14.87;;;18.40;99.90;;;;;;4201403;28;20215;-79
2021/09/10 06:26:35;;;;;;;21.33;15.23;;;18.40;99.90;;;;;;4200551;28;20218;-79
2021/09/10 06:28:37;;;;;;;22.53;14.40;;;18.40;99.90;;;;;;4199933;28;20301;-79
2021/09/10 06:30:39;;;;;;;27.40;15.33;;;18.50;99.90;;;;;;4198360;28;20229;-79
2021/09/10 06:32:41;;;;;;;20.63;14.60;;;18.50;99.90;;;;;;4201467;28;20233;-79
2021/09/10 06:34:44;;;;;;;18.73;13.50;;;18.60;99.90;;;;;;4202781;28;20626;-79
2021/09/10 06:36:45;;;;;;;20.87;14.13;;;18.60;99.90;;;;;;4199980;28;20286;-79
2021/09/10 06:38:47;;;;;;;20.37;14.63;;;18.60;99.90;;;;;;4200790;28;20528;-79
2021/09/10 06:40:49;;;;;;;20.50;14.17;;;18.70;99.90;;;;;;4200002;28;20216;-79
2021/09/10 06:42:52;;;;;;;19.10;14.40;;;18.70;99.90;;;;;;4202203;28;20686;-79
2021/09/10 06:44:54;;;;;;;20.03;13.80;;;18.70;99.90;;;;;;4200249;28;20651;-79
2021/09/10 06:46:56;;;;;;;19.77;14.47;;;18.70;99.90;;;;;;4201954;28;20534;-79
2021/09/10 06:48:58;;;;;;;21.07;14.17;;;18.80;99.90;;;;;;4204358;28;20242;-78
2021/09/10 06:51:01;;;;;;;19.97;14.30;;;18.80;99.90;;;;;;4199362;28;20257;-79
2021/09/10 06:53:02;;;;;;;19.03;13.87;;;18.90;99.90;;;;;;4200509;28;20236;-78
2021/09/10 06:55:06;;;;;;;16.90;12.73;;;18.90;99.90;;;;;;4200540;28;20625;-79
2021/09/10 06:57:07;;;;;;;17.57;13.13;;;19.00;99.90;;;;;;4199193;28;20216;-78
2021/09/10 06:59:09;;;;;;;19.30;13.20;;;19.00;99.90;;;;;;4200742;28;20216;-79
2021/09/10 07:01:11;;;;;;;18.70;13.30;;;19.00;99.90;;;;;;4199045;28;20235;-79
2021/09/10 07:03:13;;;;;;;19.43;13.03;;;19.10;99.90;;;;;;4199251;28;20243;-78
2021/09/10 07:05:15;;;;;;;19.07;12.83;;;19.10;99.90;;;;;;4198960;28;20205;-78
2021/09/10 07:07:18;;;;;;;20.90;12.77;;;19.20;99.90;;;;;;4206650;28;20216;-79
2021/09/10 07:09:19;;;;;;;17.03;12.40;;;19.30;99.90;;;;;;4206165;28;20232;-79
2021/09/10 07:11:21;;;;;;;20.47;13.10;;;19.30;99.90;;;;;;4208145;28;20208;-78
2021/09/10 07:13:23;;;;;;;22.13;13.97;;;19.30;99.90;;;;;;4199401;22;20580;-75
2021/09/10 07:15:25;;;;;;;23.30;13.33;;;19.40;99.90;;;;;;4176596;28;20210;-76
2021/09/10 07:17:27;;;;;;;21.97;13.23;;;19.50;99.90;;;;;;4169143;28;20218;-76
2021/09/10 07:19:29;;;;;;;19.07;12.23;;;19.60;99.90;;;;;;4161262;28;20214;-75
2021/09/10 07:21:31;;;;;;;20.33;12.13;;;19.60;99.90;;;;;;4162178;28;20229;-76
2021/09/10 07:23:34;;;;;;;18.43;12.27;;;19.60;99.90;;;;;;4173738;28;20640;-77
2021/09/10 07:25:38;;;;;;;17.03;12.40;;;19.80;99.90;;;;;;4180701;28;20216;-77
2021/09/10 07:27:39;;;;;;;17.13;10.73;;;19.80;99.90;;;;;;4182182;28;20658;-75
2021/09/10 07:29:41;;;;;;;15.77;11.00;;;19.90;99.90;;;;;;4186122;28;20228;-75
2021/09/10 07:31:43;;;;;;;18.30;11.40;;;20.00;99.90;;;;;;4172788;28;20647;-76
2021/09/10 07:33:45;;;;;;;14.57;10.40;;;20.00;99.90;;;;;;4177859;28;20268;-77
2021/09/10 07:35:46;;;;;;;15.27;10.77;;;20.10;99.90;;;;;;4176905;28;20218;-80
2021/09/10 07:37:49;;;;;;;12.53;9.80;;;20.30;99.90;;;;;;4167161;28;20753;-76
2021/09/10 07:39:52;;;;;;;14.83;10.63;;;20.30;99.90;;;;;;4161129;28;20218;-76
2021/09/10 07:41:53;;;;;;;14.77;10.63;;;20.40;99.90;;;;;;4175144;28;20221;-76
2021/09/10 07:43:55;;;;;;;14.53;10.77;;;20.50;99.90;;;;;;4177452;28;20210;-76
2021/09/10 07:45:57;;;;;;;16.23;10.27;;;20.60;99.90;;;;;;4160949;28;20276;-77
2021/09/10 07:47:59;;;;;;;13.37;10.33;;;20.60;99.90;;;;;;4160401;28;20215;-76
2021/09/10 07:50:00;;;;;;;17.23;10.60;;;20.70;99.90;;;;;;4163066;28;20656;-77
2021/09/10 07:52:02;;;;;;;15.10;10.20;;;20.70;99.90;;;;;;4175735;28;20237;-75
2021/09/10 07:54:04;;;;;;;14.63;9.90;;;20.80;99.90;;;;;;4175913;28;20210;-76
2021/09/10 07:56:07;;;;;;;13.87;9.80;;;20.90;99.90;;;;;;4164064;28;20272;-77
2021/09/10 07:58:09;;;;;;;13.67;10.20;;;20.90;99.90;;;;;;4176833;28;20236;-76
2021/09/10 08:00:11;;;;;;;13.73;8.97;;;21.00;99.90;;;;;;4176841;28;20218;-76
2021/09/10 08:02:13;;;;;;;13.23;9.10;;;21.00;99.90;;;;;;4167999;28;20620;-76
2021/09/10 08:04:15;;;;;;;15.30;9.23;;;21.10;99.90;;;;;;4175063;28;20218;-76
2021/09/10 08:06:16;;;;;;;12.40;8.77;;;21.10;99.90;;;;;;4165210;28;20292;-75
2021/09/10 08:08:18;;;;;;;12.17;8.93;;;21.20;99.90;;;;;;4171433;28;20237;-76
2021/09/10 08:10:20;;;;;;;12.00;8.27;;;21.20;99.90;;;;;;4163666;28;20640;-80
2021/09/10 08:12:23;;;;;;;14.20;8.40;;;21.30;99.90;;;;;;4181100;28;20668;-77
2021/09/10 08:14:26;;;;;;;11.43;8.10;;;21.40;99.90;;;;;;4179352;28;20219;-76
2021/09/10 08:16:28;;;;;;;13.77;7.93;;;21.50;99.90;;;;;;4179337;28;20697;-78
2021/09/10 08:18:30;;;;;;;13.97;7.43;;;21.60;99.90;;;;;;4174544;28;20273;-76
2021/09/10 08:20:32;;;;;;;11.73;8.40;;;21.60;99.90;;;;;;4182232;28;20198;-76
2021/09/10 08:22:35;;;;;;;10.43;7.50;;;21.60;99.90;;;;;;4176355;28;20234;-76
2021/09/10 08:24:37;;;;;;;12.00;7.97;;;21.80;99.90;;;;;;4172111;28;20305;-77
2021/09/10 08:26:38;;;;;;;12.13;8.77;;;21.90;99.90;;;;;;4173882;28;20221;-77
2021/09/10 08:28:41;;;;;;;11.70;7.90;;;21.90;99.90;;;;;;4159892;28;20213;-75
2021/09/10 08:30:44;;;;;;;11.20;8.03;;;22.00;99.90;;;;;;4176808;28;20711;-76
2021/09/10 08:32:45;;;;;;;12.13;8.10;;;22.10;99.90;;;;;;4180469;28;20236;-76
2021/09/10 08:34:48;;;;;;;10.03;8.00;;;22.10;99.90;;;;;;4173044;28;20224;-76
2021/09/10 08:36:49;;;;;;;11.40;8.60;;;22.20;99.90;;;;;;4178217;28;20681;-76
2021/09/10 08:38:51;;;;;;;10.67;8.53;;;22.30;99.90;;;;;;4179566;28;20213;-77
2021/09/10 08:40:56;;;;;;;12.50;8.60;;;22.40;99.90;;;;;;4176715;28;20206;-79
2021/09/10 08:42:58;;;;;;;13.67;8.30;;;22.50;99.90;;;;;;4179908;28;20256;-75
2021/09/10 08:45:03;;;;;;;11.57;8.37;;;22.50;99.90;;;;;;4178252;28;20262;-76
2021/09/10 08:47:05;;;;;;;14.77;8.17;;;22.60;99.90;;;;;;4177157;28;20241;-76
2021/09/10 08:49:08;;;;;;;11.60;8.03;;;22.70;99.90;;;;;;4173904;28;20219;-77
2021/09/10 08:51:10;;;;;;;10.97;8.30;;;22.80;99.90;;;;;;4184595;28;20234;-76
2021/09/10 08:53:12;;;;;;;10.63;8.40;;;22.90;99.90;;;;;;4177372;28;20248;-75
2021/09/10 08:55:16;;;;;;;10.87;8.37;;;22.90;99.90;;;;;;4181437;28;20214;-76
2021/09/10 08:57:18;;;;;;;11.37;8.03;;;23.00;99.90;;;;;;4181456;28;20321;-77
2021/09/10 08:59:21;;;;;;;10.83;8.63;;;23.10;99.90;;;;;;4182677;28;20272;-77
2021/09/10 09:01:24;;;;;;;12.33;8.40;;;23.20;99.90;;;;;;4178659;28;20206;-76
2021/09/10 09:03:30;;;;;;;12.67;8.87;;;23.30;99.90;;;;;;4179011;28;20292;-77
2021/09/10 09:05:33;;;;;;;11.37;8.43;;;23.40;99.90;;;;;;4177986;28;20701;-75
2021/09/10 09:07:34;;;;;;;12.17;8.10;;;23.50;99.90;;;;;;4179955;28;20276;-76
2021/09/10 09:09:41;;;;;;;11.07;7.80;;;23.50;99.90;;;;;;4178691;28;20211;-76
2021/09/10 09:11:43;;;;;;;14.10;8.30;;;23.60;99.90;;;;;;4175072;28;20287;-75
2021/09/10 09:13:46;;;;;;;10.83;7.97;;;23.60;99.90;;;;;;4180677;28;20218;-77
2021/09/10 09:15:48;;;;;;;11.93;7.97;;;23.60;99.90;;;;;;4179469;28;20275;-76
2021/09/10 09:17:51;;;;;;;11.67;8.10;;;23.60;99.90;;;;;;4183127;28;20659;-78
2021/09/10 09:20:13;;;;;;;12.47;8.23;;;23.70;99.90;;;;;;4178293;28;20213;-79
2021/09/10 09:22:14;;;;;;;15.53;8.20;;;23.70;99.90;;;;;;4167188;28;20230;-80
2021/09/10 09:24:19;;;;;;;11.37;7.97;;;23.80;99.90;;;;;;4164188;28;20219;-80
2021/09/10 09:26:24;;;;;;;10.13;7.03;;;23.90;99.90;;;;;;4170399;28;20608;-76
2021/09/10 09:28:27;;;;;;;10.97;7.63;;;24.00;99.90;;;;;;4166250;28;20764;-76
2021/09/10 09:30:39;;;;;;;8.77;7.33;;;24.10;99.90;;;;;;4172841;28;20617;-75
2021/09/10 09:32:48;;;;;;;11.97;7.50;;;24.10;99.90;;;;;;4171761;28;20226;-75
2021/09/10 09:34:51;;;;;;;9.87;7.47;;;24.20;99.90;;;;;;4172154;28;20256;-76
2021/09/10 09:36:54;;;;;;;9.03;7.13;;;24.30;99.90;;;;;;4173987;28;20214;-76
2021/09/10 09:38:56;;;;;;;10.07;8.10;;;24.30;99.90;;;;;;4164813;28;20655;-76
2021/09/10 09:40:59;;;;;;;11.33;7.53;;;24.40;99.90;;;;;;4169412;28;20781;-76
2021/09/10 09:43:13;;;;;;;12.23;7.73;;;24.50;99.90;;;;;;4173057;28;20234;-76
2021/09/10 09:45:20;;;;;;;10.50;7.23;;;24.50;99.90;;;;;;4169249;28;20222;-75
2021/09/10 09:47:22;;;;;;;10.10;6.73;;;24.50;99.90;;;;;;4172756;28;20927;-76
2021/09/10 09:49:24;;;;;;;9.33;6.63;;;24.50;99.90;;;;;;4171246;28;20269;-76
2021/09/10 09:51:27;;;;;;;9.70;7.40;;;24.50;99.90;;;;;;4171471;28;20242;-76
2021/09/10 09:53:29;;;;;;;8.20;6.70;;;24.60;99.90;;;;;;4171976;28;20810;-75
2021/09/10 09:55:32;;;;;;;9.53;6.53;;;24.60;99.90;;;;;;4173890;28;20283;-75
2021/09/10 09:57:35;;;;;;;9.17;6.77;;;24.60;99.90;;;;;;4173587;28;20218;-75
2021/09/10 09:59:37;;;;;;;8.87;6.50;;;24.70;99.90;;;;;;4167524;28;20217;-77
2021/09/10 10:01:39;;;;;;;10.37;6.67;;;24.70;99.90;;;;;;4173958;28;20206;-77
2021/09/10 10:03:41;;;;;;;10.50;7.10;;;24.80;99.90;;;;;;4171429;28;20260;-76
2021/09/10 10:05:52;;;;;;;10.77;7.10;;;24.80;99.90;;;;;;4159708;28;20684;-76
2021/09/10 10:07:58;;;;;;;9.87;6.60;;;25.00;99.90;;;;;;4174479;28;20218;-79
2021/09/10 10:10:00;;;;;;;8.57;7.10;;;25.10;99.90;;;;;;4189942;28;20219;-77
2021/09/10 10:12:03;;;;;;;10.13;7.00;;;25.20;99.90;;;;;;4167602;28;20236;-76
2021/09/10 10:14:06;;;;;;;8.17;6.73;;;25.40;99.90;;;;;;4166604;28;20210;-79
2021/09/10 10:16:28;;;;;;;8.77;6.87;;;25.50;99.90;;;;;;4175995;28;20218;-79
2021/09/10 10:18:41;;;;;;;9.00;6.47;;;25.70;99.90;;;;;;4166319;28;20326;-78
2021/09/10 10:20:50;;;;;;;8.50;6.80;;;25.80;99.80;;;;;;4176666;28;20317;-79
2021/09/10 10:22:52;;;;;;;9.07;6.10;;;25.90;99.90;;;;;;4171727;28;20234;-78
2021/09/10 10:24:58;;;;;;;9.17;6.43;;;25.90;99.80;;;;;;4170278;28;20214;-78